createdAt,value
2023-12-04T00:01:52.484Z,7.47
2023-12-04T00:04:19.317Z,9.43
2023-12-04T00:06:45.941Z,8.00
2023-12-04T00:09:12.914Z,7.82
2023-12-04T00:11:42.350Z,7.63
2023-12-04T00:14:09.255Z,8.70
2023-12-04T00:16:36.700Z,8.52
2023-12-04T00:19:03.452Z,7.97
2023-12-04T00:21:30.098Z,8.20
2023-12-04T00:23:56.803Z,8.52
2023-12-04T00:26:23.342Z,8.80
2023-12-04T00:28:49.929Z,8.45
2023-12-04T00:31:16.491Z,8.30
2023-12-04T00:33:43.190Z,7.80
2023-12-04T00:36:10.777Z,7.90
2023-12-04T00:38:37.302Z,8.65
2023-12-04T00:41:04.009Z,7.40
2023-12-04T00:43:30.587Z,7.88
2023-12-04T00:45:58.142Z,7.82
2023-12-04T00:48:24.833Z,8.40
2023-12-04T00:50:52.695Z,8.13
2023-12-04T00:53:19.313Z,8.02
2023-12-04T00:55:45.904Z,8.25
2023-12-04T00:58:13.825Z,7.72
2023-12-04T01:00:40.588Z,7.60
2023-12-04T01:03:10.311Z,7.65
2023-12-04T01:05:36.989Z,7.18
2023-12-04T01:08:03.721Z,8.02
2023-12-04T01:10:31.252Z,8.10
2023-12-04T01:12:57.835Z,7.97
2023-12-04T01:15:24.754Z,7.25
2023-12-04T01:17:53.965Z,7.80
2023-12-04T01:20:20.492Z,7.88
2023-12-04T01:22:47.087Z,7.38
2023-12-04T01:25:13.775Z,7.85
2023-12-04T01:27:41.155Z,7.90
2023-12-04T01:30:11.317Z,8.15
2023-12-04T01:32:37.808Z,7.68
2023-12-04T01:35:04.691Z,7.22
2023-12-04T01:37:31.222Z,7.95
2023-12-04T01:39:57.708Z,8.75
2023-12-04T01:42:24.245Z,8.90
2023-12-04T01:44:50.820Z,7.95
2023-12-04T01:47:18.908Z,8.32
2023-12-04T01:49:45.676Z,7.93
2023-12-04T01:52:12.950Z,7.78
2023-12-04T01:54:40.185Z,8.00
2023-12-04T01:57:07.244Z,8.73
2023-12-04T01:59:34.106Z,7.18
2023-12-04T02:02:01.680Z,8.18
2023-12-04T02:04:28.302Z,8.57
2023-12-04T02:06:55.563Z,7.80
2023-12-04T02:09:22.495Z,8.32
2023-12-04T02:11:49.541Z,7.88
2023-12-04T02:14:16.254Z,8.38
2023-12-04T02:16:45.022Z,7.95
2023-12-04T02:19:14.405Z,7.90
2023-12-04T02:21:41.217Z,8.85
2023-12-04T02:24:07.914Z,8.60
2023-12-04T02:26:40.712Z,7.78
2023-12-04T02:29:12.632Z,7.32
2023-12-04T02:31:40.921Z,7.45
2023-12-04T02:34:08.449Z,8.00
2023-12-04T02:36:37.256Z,8.30
2023-12-04T02:39:06.949Z,8.38
2023-12-04T02:41:35.561Z,8.35
2023-12-04T02:44:02.078Z,7.93
2023-12-04T02:46:28.606Z,7.43
2023-12-04T02:48:55.202Z,8.40
2023-12-04T02:51:21.833Z,8.13
2023-12-04T02:53:48.429Z,8.05
2023-12-04T02:56:14.958Z,8.57
2023-12-04T02:58:41.503Z,8.70
2023-12-04T03:01:08.137Z,8.40
2023-12-04T03:03:34.712Z,8.02
2023-12-04T03:06:01.481Z,8.20
2023-12-04T03:08:28.099Z,9.02
2023-12-04T03:10:54.615Z,8.65
2023-12-04T03:13:21.170Z,8.50
2023-12-04T03:15:47.739Z,8.40
2023-12-04T03:18:14.418Z,7.90
2023-12-04T03:20:41.142Z,8.25
2023-12-04T03:23:07.814Z,8.30
2023-12-04T03:25:34.390Z,8.40
2023-12-04T03:28:00.989Z,8.15
2023-12-04T03:30:27.560Z,8.68
2023-12-04T03:32:54.400Z,7.57
2023-12-04T03:35:21.036Z,9.30
2023-12-04T03:37:47.634Z,8.35
2023-12-04T03:40:14.224Z,8.40
2023-12-04T03:42:41.911Z,8.25
2023-12-04T03:45:08.857Z,9.20
2023-12-04T03:47:35.526Z,8.27
2023-12-04T03:50:02.532Z,8.00
2023-12-04T03:52:29.101Z,8.73
2023-12-04T03:54:55.637Z,8.32
2023-12-04T03:57:22.213Z,8.77
2023-12-04T03:59:48.781Z,8.68
2023-12-04T04:02:15.341Z,9.20
2023-12-04T04:04:41.815Z,9.23
2023-12-04T04:07:09.988Z,9.07
2023-12-04T04:09:36.614Z,9.15
2023-12-04T04:12:03.601Z,8.93
2023-12-04T04:14:30.161Z,9.27
2023-12-04T04:16:56.798Z,9.00
2023-12-04T04:19:23.387Z,8.50
2023-12-04T04:21:49.976Z,9.35
2023-12-04T04:24:16.495Z,8.52
2023-12-04T04:26:43.036Z,9.52
2023-12-04T04:29:10.638Z,8.80
2023-12-04T04:31:37.519Z,9.07
2023-12-04T04:34:04.312Z,9.02
2023-12-04T04:36:30.917Z,9.35
2023-12-04T04:38:57.981Z,9.48
2023-12-04T04:41:24.504Z,9.40
2023-12-04T04:43:51.026Z,9.68
2023-12-04T04:46:17.481Z,9.18
2023-12-04T04:48:44.054Z,8.20
2023-12-04T04:51:10.667Z,9.82
2023-12-04T04:53:37.220Z,9.82
2023-12-04T04:56:04.020Z,8.90
2023-12-04T04:58:30.560Z,8.98
2023-12-04T05:00:57.198Z,8.75
2023-12-04T05:03:25.278Z,9.57
2023-12-04T05:05:52.204Z,9.48
2023-12-04T05:08:18.749Z,8.55
2023-12-04T05:10:45.361Z,9.18
2023-12-04T05:13:11.966Z,9.43
2023-12-04T05:15:38.641Z,8.45
2023-12-04T05:18:05.516Z,9.48
2023-12-04T05:20:32.088Z,9.75
2023-12-04T05:22:58.618Z,8.50
2023-12-04T05:25:29.320Z,10.30
2023-12-04T05:27:58.440Z,9.27
2023-12-04T05:30:25.016Z,9.60
2023-12-04T05:32:51.668Z,9.98
2023-12-04T05:35:18.915Z,8.88
2023-12-04T05:37:46.215Z,8.93
2023-12-04T05:40:13.113Z,9.10
2023-12-04T05:42:39.700Z,8.93
2023-12-04T05:45:08.254Z,9.13
2023-12-04T05:47:35.776Z,9.43
2023-12-04T05:50:02.596Z,8.50
2023-12-04T05:52:29.210Z,9.30
2023-12-04T05:54:56.096Z,8.68
2023-12-04T05:57:22.662Z,9.75
2023-12-04T05:59:49.546Z,9.05
2023-12-04T06:02:16.519Z,9.13
2023-12-04T06:04:43.283Z,8.90
2023-12-04T06:07:10.287Z,8.73
2023-12-04T06:09:37.963Z,8.75
2023-12-04T06:12:09.159Z,9.38
2023-12-04T06:14:36.133Z,9.43
2023-12-04T06:17:03.129Z,8.63
2023-12-04T06:19:30.593Z,8.93
2023-12-04T06:21:57.402Z,9.25
2023-12-04T06:24:24.401Z,9.05
2023-12-04T06:26:51.764Z,9.23
2023-12-04T06:29:19.303Z,9.35
2023-12-04T06:31:46.265Z,8.45
2023-12-04T06:34:13.326Z,8.77
2023-12-04T06:36:42.221Z,9.18
2023-12-04T06:39:13.403Z,8.88
2023-12-04T06:41:41.061Z,8.82
2023-12-04T06:44:08.701Z,9.43
2023-12-04T06:46:38.563Z,8.73
2023-12-04T06:49:07.526Z,8.82
2023-12-04T06:51:34.302Z,9.10
2023-12-04T06:54:00.949Z,8.80
2023-12-04T06:56:27.562Z,8.77
2023-12-04T06:58:54.212Z,9.27
2023-12-04T07:01:20.815Z,8.85
2023-12-04T07:03:47.428Z,9.32
2023-12-04T07:06:15.647Z,9.27
2023-12-04T07:09:00.356Z,9.27
2023-12-04T07:11:27.219Z,9.35
2023-12-04T07:13:53.913Z,9.55
2023-12-04T07:16:20.676Z,9.73
2023-12-04T07:18:47.415Z,9.15
2023-12-04T07:21:14.078Z,9.18
2023-12-04T07:23:40.693Z,8.75
2023-12-04T07:26:07.867Z,9.77
2023-12-04T07:28:35.296Z,9.77
2023-12-04T07:31:04.652Z,9.18
2023-12-04T07:35:57.919Z,8.65
2023-12-04T07:38:27.154Z,8.90
2023-12-04T07:40:55.238Z,9.02
2023-12-04T07:43:21.847Z,9.15
2023-12-04T07:45:48.533Z,9.35
2023-12-04T07:48:15.170Z,9.32
2023-12-04T07:50:41.989Z,9.32
2023-12-04T07:53:10.919Z,9.15
2023-12-04T07:55:37.543Z,8.52
2023-12-04T07:58:04.226Z,8.57
2023-12-04T08:00:31.023Z,9.95
2023-12-04T08:02:57.598Z,8.50
2023-12-04T08:05:24.220Z,8.43
2023-12-04T08:07:50.773Z,7.65
2023-12-04T08:10:17.334Z,8.13
2023-12-04T08:12:47.470Z,8.05
2023-12-04T08:15:14.400Z,8.90
2023-12-04T08:17:41.547Z,8.07
2023-12-04T08:20:08.867Z,8.20
2023-12-04T08:22:35.483Z,8.07
2023-12-04T08:25:02.346Z,9.00
2023-12-04T08:27:30.147Z,8.27
2023-12-04T08:29:56.870Z,8.32
2023-12-04T08:32:23.627Z,8.23
2023-12-04T08:34:50.238Z,7.50
2023-12-04T08:37:17.016Z,8.65
2023-12-04T08:39:43.682Z,8.30
2023-12-04T08:42:15.176Z,8.23
2023-12-04T08:44:48.668Z,8.13
2023-12-04T08:47:15.195Z,8.45
2023-12-04T08:49:46.392Z,8.23
2023-12-04T08:52:16.058Z,8.02
2023-12-04T08:54:43.092Z,8.05
2023-12-04T08:57:10.658Z,8.43
2023-12-04T08:59:37.343Z,8.27
2023-12-04T09:02:05.492Z,7.97
2023-12-04T09:04:33.096Z,8.18
2023-12-04T09:09:30.455Z,8.40
2023-12-04T09:11:57.873Z,8.05
2023-12-04T09:14:24.645Z,7.10
2023-12-04T09:16:51.237Z,8.23
2023-12-04T09:19:17.947Z,8.35
2023-12-04T09:21:45.471Z,8.13
2023-12-04T09:24:15.948Z,8.00
2023-12-04T09:26:44.664Z,8.10
2023-12-04T09:29:14.429Z,8.20
2023-12-04T09:32:07.203Z,8.15
2023-12-04T09:34:36.556Z,7.95
2023-12-04T09:37:09.017Z,8.20
2023-12-04T09:39:38.202Z,8.02
2023-12-04T09:42:05.148Z,8.18
2023-12-04T09:44:32.082Z,7.63
2023-12-04T09:47:00.718Z,6.50
2023-12-04T09:49:30.275Z,7.15
2023-12-04T09:51:59.447Z,7.78
2023-12-04T09:54:27.558Z,7.03
2023-12-04T09:56:54.468Z,7.35
2023-12-04T09:59:26.287Z,7.90
2023-12-04T10:01:53.627Z,7.18
2023-12-04T10:04:22.248Z,8.00
2023-12-04T10:06:51.679Z,8.00
2023-12-04T10:09:19.339Z,7.18
2023-12-04T10:11:46.892Z,7.65
2023-12-04T10:14:18.599Z,7.78
2023-12-04T10:16:46.181Z,7.05
2023-12-04T10:19:21.495Z,7.88
2023-12-04T10:21:49.973Z,7.30
2023-12-04T10:24:37.406Z,8.50
2023-12-04T10:27:06.290Z,7.10
2023-12-04T10:29:44.890Z,9.02
2023-12-04T10:32:11.812Z,7.13
2023-12-04T10:34:38.763Z,7.65
2023-12-04T10:37:06.182Z,7.72
2023-12-04T10:39:48.171Z,7.70
2023-12-04T10:42:26.967Z,6.78
2023-12-04T10:44:56.232Z,6.53
2023-12-04T10:47:23.008Z,7.95
2023-12-04T10:49:53.228Z,7.07
2023-12-04T10:52:20.480Z,7.68
2023-12-04T10:54:47.950Z,6.68
2023-12-04T10:57:21.738Z,6.18
2023-12-04T10:59:51.774Z,6.47
2023-12-04T11:02:24.572Z,7.30
2023-12-04T11:04:55.999Z,7.15
2023-12-04T11:07:25.474Z,7.30
2023-12-04T11:09:52.536Z,6.97
2023-12-04T11:12:26.434Z,7.18
2023-12-04T11:15:00.264Z,7.70
2023-12-04T11:17:34.167Z,7.28
2023-12-04T11:20:08.659Z,6.65
2023-12-04T11:22:36.424Z,6.55
2023-12-04T11:25:06.681Z,6.90
2023-12-04T11:27:33.652Z,6.82
2023-12-04T11:30:01.032Z,6.85
2023-12-04T11:32:29.756Z,6.80
2023-12-04T11:34:57.556Z,6.78
2023-12-04T11:37:24.731Z,7.15
2023-12-04T11:39:52.357Z,7.25
2023-12-04T11:42:25.699Z,7.43
2023-12-04T11:44:59.830Z,7.45
2023-12-04T11:47:29.284Z,7.20
2023-12-04T11:49:56.042Z,6.75
2023-12-04T11:52:35.188Z,7.15
2023-12-04T11:55:06.184Z,7.30
2023-12-04T11:57:35.573Z,6.90
2023-12-04T12:00:21.051Z,6.72
2023-12-04T12:03:15.245Z,6.38
2023-12-04T12:05:40.288Z,6.45
2023-12-04T12:08:09.083Z,6.63
2023-12-04T12:10:36.358Z,6.53
2023-12-04T12:13:03.272Z,6.53
2023-12-04T12:15:30.590Z,6.88
2023-12-04T12:17:57.409Z,7.30
2023-12-04T12:20:24.320Z,6.57
2023-12-04T12:22:50.945Z,7.35
2023-12-04T12:25:18.213Z,7.13
2023-12-04T12:27:45.895Z,7.85
2023-12-04T12:30:12.793Z,7.22
2023-12-04T12:32:39.452Z,7.30
2023-12-04T12:35:08.646Z,7.07
2023-12-04T12:37:36.089Z,7.53
2023-12-04T12:40:05.806Z,7.20
2023-12-04T12:42:34.403Z,7.03
2023-12-04T12:45:03.473Z,7.43
2023-12-04T12:47:30.905Z,7.35
2023-12-04T12:50:02.771Z,6.68
2023-12-04T12:52:30.447Z,7.15
2023-12-04T12:54:57.340Z,7.40
2023-12-04T12:57:24.119Z,7.65
2023-12-04T12:59:50.881Z,7.15
2023-12-04T13:02:17.768Z,7.53
2023-12-04T13:04:46.707Z,7.40
2023-12-04T13:07:13.753Z,7.07
2023-12-04T13:09:40.637Z,6.72
2023-12-04T13:12:08.045Z,7.82
2023-12-04T13:14:36.847Z,7.95
2023-12-04T13:17:05.055Z,7.82
2023-12-04T13:19:36.044Z,7.03
2023-12-04T13:22:02.981Z,7.30
2023-12-04T13:24:29.574Z,7.13
2023-12-04T13:26:56.287Z,7.15
2023-12-04T13:29:22.889Z,7.30
2023-12-04T13:31:51.582Z,6.97
2023-12-04T13:34:18.930Z,8.10
2023-12-04T13:36:45.816Z,6.65
2023-12-04T13:39:18.166Z,7.50
2023-12-04T13:42:06.457Z,8.02
2023-12-04T13:44:34.496Z,7.32
2023-12-04T13:47:01.451Z,7.28
2023-12-04T13:49:28.165Z,7.35
2023-12-04T13:52:00.431Z,7.07
2023-12-04T13:54:43.571Z,7.50
2023-12-04T13:57:10.215Z,6.40
2023-12-04T13:59:39.709Z,7.00
2023-12-04T14:02:11.590Z,7.68
2023-12-04T14:04:42.947Z,7.68
2023-12-04T14:07:14.461Z,7.50
2023-12-04T14:09:41.731Z,7.40
2023-12-04T14:12:09.686Z,7.00
2023-12-04T14:14:38.739Z,6.78
2023-12-04T14:17:06.753Z,7.18
2023-12-04T14:19:33.450Z,7.38
2023-12-04T14:22:00.691Z,7.25
2023-12-04T14:24:27.845Z,7.47
2023-12-04T14:30:37.131Z,6.68
2023-12-04T14:33:17.979Z,7.57
2023-12-04T14:35:55.953Z,6.72
2023-12-04T14:38:45.398Z,6.88
2023-12-04T14:41:20.013Z,7.55
2023-12-04T14:44:21.765Z,7.93
2023-12-04T14:47:46.647Z,7.57
2023-12-04T14:51:17.010Z,7.38
2023-12-04T14:57:40.989Z,6.57
2023-12-04T15:00:14.579Z,7.55
2023-12-04T15:02:41.685Z,6.90
2023-12-04T15:05:08.534Z,6.65
2023-12-04T15:07:36.006Z,7.63
2023-12-04T15:10:25.275Z,7.72
2023-12-04T15:13:10.430Z,7.03
2023-12-04T15:15:55.542Z,7.32
2023-12-04T15:18:43.525Z,7.38
2023-12-04T15:21:10.201Z,7.20
2023-12-04T15:23:36.827Z,7.25
2023-12-04T15:26:03.954Z,8.00
2023-12-04T15:28:30.639Z,7.53
2023-12-04T15:30:57.741Z,7.88
2023-12-04T15:33:27.247Z,7.55
2023-12-04T15:35:54.091Z,7.47
2023-12-04T15:38:21.372Z,7.65
2023-12-04T15:40:48.491Z,7.07
2023-12-04T15:43:15.270Z,7.63
2023-12-04T15:45:41.891Z,6.80
2023-12-04T15:48:09.022Z,7.93
2023-12-04T15:50:35.660Z,7.55
2023-12-04T15:53:02.899Z,7.65
2023-12-04T15:55:29.882Z,6.72
2023-12-04T15:57:56.799Z,7.22
2023-12-04T16:00:24.428Z,7.43
2023-12-04T16:02:51.470Z,7.63
2023-12-04T16:05:18.709Z,7.50
2023-12-04T16:07:46.408Z,8.20
2023-12-04T16:10:16.460Z,8.20
2023-12-04T16:12:43.655Z,7.35
2023-12-04T16:15:11.233Z,7.53
2023-12-04T16:17:39.232Z,8.10
2023-12-04T16:20:14.248Z,7.15
2023-12-04T16:25:10.636Z,7.03
2023-12-04T16:27:39.442Z,7.10
2023-12-04T16:30:07.753Z,7.45
2023-12-04T16:32:34.702Z,7.80
2023-12-04T16:35:02.465Z,6.78
2023-12-04T16:37:29.825Z,7.32
2023-12-04T16:39:56.838Z,8.07
2023-12-04T16:42:23.560Z,8.23
2023-12-04T16:44:50.217Z,7.25
2023-12-04T16:47:16.810Z,6.82
2023-12-04T16:49:43.523Z,7.13
2023-12-04T16:52:15.644Z,7.50
2023-12-04T16:54:43.277Z,7.43
2023-12-04T16:57:10.982Z,7.80
2023-12-04T16:59:38.576Z,7.70
2023-12-04T17:02:06.911Z,7.72
2023-12-04T17:04:33.772Z,7.28
2023-12-04T17:07:00.653Z,7.47
2023-12-04T17:09:27.331Z,7.63
2023-12-04T17:11:54.030Z,7.25
2023-12-04T17:14:26.327Z,7.55
2023-12-04T17:16:52.893Z,7.63
2023-12-04T17:19:19.645Z,6.82
2023-12-04T17:21:46.358Z,7.78
2023-12-04T17:24:13.102Z,7.07
2023-12-04T17:26:39.893Z,6.90
2023-12-04T17:29:06.562Z,7.50
2023-12-04T17:31:33.157Z,6.97
2023-12-04T17:34:00.032Z,7.15
2023-12-04T17:36:26.693Z,7.20
2023-12-04T17:38:53.359Z,6.70
2023-12-04T17:41:19.990Z,7.13
2023-12-04T17:43:46.784Z,7.22
2023-12-04T17:46:14.304Z,6.97
2023-12-04T17:48:42.225Z,7.30
2023-12-04T17:51:15.322Z,6.63
2023-12-04T17:53:41.974Z,7.50
2023-12-04T17:56:09.272Z,7.95
2023-12-04T17:58:35.849Z,8.15
2023-12-04T18:01:02.623Z,7.65
2023-12-04T18:03:29.306Z,7.53
2023-12-04T18:05:56.058Z,7.60
2023-12-04T18:08:22.827Z,6.78
2023-12-04T18:10:49.434Z,7.18
2023-12-04T18:13:16.021Z,7.97
2023-12-04T18:15:42.799Z,6.95
2023-12-04T18:18:09.524Z,7.40
2023-12-04T18:20:36.180Z,6.82
2023-12-04T18:23:02.727Z,7.53
2023-12-04T18:25:29.713Z,6.72
2023-12-04T18:27:59.943Z,7.70
2023-12-04T18:30:28.601Z,7.43
2023-12-04T18:32:56.035Z,8.23
2023-12-04T18:35:23.642Z,7.25
2023-12-04T18:37:58.580Z,7.53
2023-12-04T18:40:26.010Z,6.97
2023-12-04T18:42:52.937Z,6.63
2023-12-04T18:45:20.031Z,7.47
2023-12-04T18:47:54.342Z,7.18
2023-12-04T18:50:21.665Z,7.70
2023-12-04T18:52:50.490Z,7.78
2023-12-04T18:55:17.063Z,8.35
2023-12-04T18:57:43.613Z,7.57
2023-12-04T19:00:10.749Z,7.32
2023-12-04T19:02:37.988Z,7.45
2023-12-04T19:05:05.225Z,7.10
2023-12-04T19:07:31.917Z,7.32
2023-12-04T19:09:58.575Z,7.22
2023-12-04T19:12:26.123Z,8.20
2023-12-04T19:14:52.656Z,7.57
2023-12-04T19:17:19.245Z,7.93
2023-12-04T19:19:45.913Z,7.90
2023-12-04T19:22:12.443Z,7.45
2023-12-04T19:24:39.088Z,7.07
2023-12-04T19:27:05.865Z,8.25
2023-12-04T19:29:32.398Z,7.30
2023-12-04T19:31:58.940Z,7.25
2023-12-04T19:34:26.976Z,7.20
2023-12-04T19:36:53.952Z,7.90
2023-12-04T19:39:20.656Z,7.45
2023-12-04T19:41:47.212Z,7.70
2023-12-04T19:44:13.871Z,6.72
2023-12-04T19:46:43.940Z,7.35
2023-12-04T19:49:11.191Z,7.05
2023-12-04T19:51:44.791Z,7.90
2023-12-04T19:54:11.640Z,7.35
2023-12-04T19:56:42.285Z,7.60
2023-12-04T19:59:08.966Z,7.85
2023-12-04T20:01:35.618Z,7.50
2023-12-04T20:04:02.315Z,7.80
2023-12-04T20:06:29.085Z,7.50
2023-12-04T20:08:55.788Z,6.90
2023-12-04T20:11:22.533Z,7.60
2023-12-04T20:13:49.058Z,7.68
2023-12-04T20:16:16.257Z,6.68
2023-12-04T20:18:43.335Z,7.00
2023-12-04T20:21:10.285Z,7.38
2023-12-04T20:23:37.956Z,7.63
2023-12-04T20:26:05.036Z,6.57
2023-12-04T20:28:32.507Z,6.80
2023-12-04T20:30:59.207Z,6.50
2023-12-04T20:33:26.354Z,7.00
2023-12-04T20:35:53.185Z,6.75
2023-12-04T20:38:19.731Z,6.40
2023-12-04T20:40:49.532Z,7.13
2023-12-04T20:43:16.279Z,6.40
2023-12-04T20:45:44.668Z,6.97
2023-12-04T20:48:12.803Z,7.10
2023-12-04T20:50:42.343Z,7.43
2023-12-04T20:53:09.915Z,6.97
2023-12-04T20:55:37.008Z,7.68
2023-12-04T20:58:06.125Z,7.30
2023-12-04T21:00:35.405Z,7.60
2023-12-04T21:03:07.307Z,7.35
2023-12-04T21:05:34.207Z,7.93
2023-12-04T21:08:00.804Z,7.70
2023-12-04T21:10:27.344Z,7.63
2023-12-04T21:12:54.866Z,7.55
2023-12-04T21:15:21.543Z,8.00
2023-12-04T21:17:48.220Z,7.72
2023-12-04T21:20:14.983Z,7.82
2023-12-04T21:22:42.845Z,7.35
2023-12-04T21:25:09.956Z,7.72
2023-12-04T21:27:36.895Z,7.82
2023-12-04T21:30:05.664Z,8.15
2023-12-04T21:32:32.838Z,8.00
2023-12-04T21:35:00.052Z,8.35
2023-12-04T21:37:26.673Z,7.95
2023-12-04T21:39:53.565Z,8.63
2023-12-04T21:42:22.733Z,8.88
2023-12-04T21:44:49.342Z,7.85
2023-12-04T21:47:15.949Z,7.18
2023-12-04T21:49:44.484Z,7.97
2023-12-04T21:52:11.149Z,7.68
2023-12-04T21:54:37.788Z,7.38
2023-12-04T21:57:04.887Z,8.48
2023-12-04T21:59:43.438Z,8.20
2023-12-04T22:02:10.052Z,7.80
2023-12-04T22:04:36.683Z,7.65
2023-12-04T22:07:04.464Z,7.63
2023-12-04T22:09:31.139Z,8.25
2023-12-04T22:11:57.792Z,7.63
2023-12-04T22:14:24.705Z,7.80
2023-12-04T22:16:51.557Z,8.13
2023-12-04T22:19:18.555Z,8.00
2023-12-04T22:21:45.392Z,7.75
2023-12-04T22:24:12.033Z,8.55
2023-12-04T22:26:38.628Z,8.20
2023-12-04T22:29:05.137Z,8.02
2023-12-04T22:31:31.655Z,8.27
2023-12-04T22:33:58.300Z,8.00
2023-12-04T22:36:24.852Z,7.80
2023-12-04T22:38:51.412Z,7.18
2023-12-04T22:41:17.929Z,7.93
2023-12-04T22:43:46.171Z,8.00
2023-12-04T22:46:12.926Z,7.47
2023-12-04T22:48:39.810Z,8.90
2023-12-04T22:51:06.845Z,8.15
2023-12-04T22:53:33.438Z,8.00
2023-12-04T22:56:00.299Z,8.30
2023-12-04T22:58:26.906Z,7.35
2023-12-04T23:00:54.334Z,8.38
2023-12-04T23:03:21.839Z,6.95
2023-12-04T23:05:49.825Z,7.72
2023-12-04T23:08:18.611Z,8.02
2023-12-04T23:10:45.909Z,7.93
2023-12-04T23:13:13.307Z,7.78
2023-12-04T23:15:40.261Z,7.35
2023-12-04T23:18:06.902Z,8.18
2023-12-04T23:20:33.901Z,8.25
2023-12-04T23:23:00.469Z,7.60
2023-12-04T23:25:27.044Z,8.20
2023-12-04T23:27:53.660Z,8.45
2023-12-04T23:30:20.464Z,8.60
2023-12-04T23:32:47.233Z,8.43
2023-12-04T23:35:13.914Z,7.82
2023-12-04T23:37:40.476Z,7.20
2023-12-04T23:40:07.552Z,7.50
2023-12-04T23:42:34.229Z,8.25
2023-12-04T23:45:00.883Z,8.73
2023-12-04T23:47:27.482Z,7.93
2023-12-04T23:49:54.202Z,7.43
2023-12-04T23:52:20.821Z,7.55
2023-12-04T23:54:47.404Z,7.45
2023-12-04T23:57:13.967Z,8.18
2023-12-04T23:59:41.106Z,8.23
